Time;durP1;ratioP1;P1;durP2;ratioP2;P2;SDS_P1;SDS_P2;PMS_P1;PMS_P2;Temp;Humidity;BMP_temperature;BMP_pressure;BME280_temperature;BME280_humidity;BME280_pressure;Samples;Min_cycle;Max_cycle;Signal;HPM_P1;HPM_P2
2022/04/10 00:00:29;;;;;;;11.17;4.47;;;3.40;99.90;;;;;;5084348;28;20230;-73
2022/04/10 00:02:57;;;;;;;10.47;4.57;;;3.40;99.90;;;;;;5084361;28;20237;-73
2022/04/10 00:05:24;;;;;;;8.57;4.20;;;3.30;99.90;;;;;;5087224;28;20201;-73
2022/04/10 00:07:51;;;;;;;8.37;5.00;;;3.40;99.90;;;;;;5083845;28;20695;-73
2022/04/10 00:10:18;;;;;;;9.27;4.30;;;3.40;99.90;;;;;;5083053;28;20601;-75
2022/04/10 00:12:46;;;;;;;9.93;4.10;;;3.50;99.90;;;;;;5087240;28;20206;-75
2022/04/10 00:15:13;;;;;;;10.33;5.60;;;3.50;99.90;;;;;;5080994;28;20194;-73
2022/04/10 00:17:40;;;;;;;7.77;3.80;;;3.60;99.90;;;;;;5083245;28;20202;-73
2022/04/10 00:20:11;;;;;;;11.30;4.40;;;3.60;99.90;;;;;;5085597;28;20683;-73
2022/04/10 00:22:43;;;;;;;13.37;4.30;;;3.60;99.90;;;;;;5083748;28;20214;-72
2022/04/10 00:25:11;;;;;;;8.47;4.20;;;3.70;99.90;;;;;;5083468;28;20252;-72
2022/04/10 00:27:39;;;;;;;9.63;4.03;;;3.70;99.90;;;;;;5087495;28;20210;-73
2022/04/10 00:30:11;;;;;;;8.67;3.90;;;3.70;99.90;;;;;;5082711;28;20202;-73
2022/04/10 00:32:38;;;;;;;7.97;3.70;;;3.70;99.90;;;;;;5081253;28;20260;-72
2022/04/10 00:35:08;;;;;;;10.07;4.23;;;3.70;99.90;;;;;;5088437;28;20263;-72
2022/04/10 00:37:36;;;;;;;6.83;3.87;;;3.70;99.90;;;;;;5090703;28;20197;-73
2022/04/10 00:40:04;;;;;;;10.63;4.63;;;3.70;99.90;;;;;;5088504;28;20289;-72
2022/04/10 00:42:32;;;;;;;7.10;3.97;;;3.70;99.90;;;;;;5085111;28;20201;-72
2022/04/10 00:44:59;;;;;;;6.07;3.73;;;3.60;99.90;;;;;;5089430;28;20558;-73
2022/04/10 00:47:26;;;;;;;9.10;4.47;;;3.60;99.90;;;;;;5089474;28;20194;-73
2022/04/10 00:49:53;;;;;;;6.37;3.70;;;3.60;99.90;;;;;;5075368;28;20618;-72
2022/04/10 00:52:21;;;;;;;11.17;3.90;;;3.60;99.90;;;;;;5091269;28;20242;-72
2022/04/10 00:54:49;;;;;;;12.17;3.67;;;3.60;99.90;;;;;;5094081;28;20247;-72
2022/04/10 00:57:16;;;;;;;7.00;3.30;;;3.60;99.90;;;;;;5090365;28;20266;-73
2022/04/10 00:59:43;;;;;;;8.97;3.53;;;3.50;99.90;;;;;;5087707;28;20237;-73
2022/04/10 01:02:10;;;;;;;9.50;4.10;;;3.50;99.90;;;;;;5091510;28;20701;-72
2022/04/10 01:04:38;;;;;;;8.07;4.10;;;3.50;99.90;;;;;;5086515;28;20194;-73
2022/04/10 01:07:06;;;;;;;8.10;3.80;;;3.40;99.90;;;;;;5090317;28;20197;-72
2022/04/10 01:09:34;;;;;;;10.03;4.10;;;3.50;99.90;;;;;;5083845;28;20620;-72
2022/04/10 01:12:02;;;;;;;12.13;4.17;;;3.50;99.90;;;;;;5091211;28;20198;-72
2022/04/10 01:14:30;;;;;;;11.53;4.33;;;3.60;99.90;;;;;;5084989;28;20205;-73
2022/04/10 01:16:57;;;;;;;7.50;3.60;;;3.60;99.90;;;;;;5089401;28;20202;-72
2022/04/10 01:19:25;;;;;;;10.47;4.10;;;3.60;99.90;;;;;;5088283;28;20198;-74
2022/04/10 01:21:54;;;;;;;9.97;4.00;;;3.60;99.90;;;;;;5087207;28;20256;-74
2022/04/10 01:24:23;;;;;;;9.70;4.20;;;3.70;99.90;;;;;;5084578;28;20624;-73
2022/04/10 01:26:50;;;;;;;12.53;4.20;;;3.70;99.90;;;;;;5092602;28;20236;-74
2022/04/10 01:29:17;;;;;;;9.63;4.10;;;3.60;99.90;;;;;;5087072;28;20217;-74
2022/04/10 01:31:46;;;;;;;13.30;4.40;;;3.60;99.90;;;;;;5084299;28;20259;-74
2022/04/10 01:34:15;;;;;;;12.53;4.00;;;3.70;99.90;;;;;;5091071;28;20202;-74
2022/04/10 01:36:43;;;;;;;7.13;4.03;;;3.70;99.90;;;;;;5090558;28;20603;-74
2022/04/10 01:39:12;;;;;;;10.97;3.90;;;3.80;99.90;;;;;;5082601;28;20484;-74
2022/04/10 01:41:41;;;;;;;9.43;3.93;;;3.70;99.90;;;;;;5086232;28;20210;-74
2022/04/10 01:44:10;;;;;;;8.30;3.80;;;3.70;99.90;;;;;;5090414;28;20565;-74
2022/04/10 01:46:37;;;;;;;9.17;4.23;;;3.80;99.90;;;;;;5089754;28;20225;-73
2022/04/10 01:49:06;;;;;;;10.80;4.17;;;3.70;99.90;;;;;;5084236;28;20311;-73
2022/04/10 01:51:33;;;;;;;9.80;3.80;;;3.70;99.90;;;;;;5088872;28;20229;-74
2022/04/10 01:54:00;;;;;;;9.70;3.93;;;3.60;99.90;;;;;;5084561;28;20206;-73
2022/04/10 01:56:27;;;;;;;8.03;3.63;;;3.70;99.90;;;;;;5087660;28;20224;-74
2022/04/10 01:58:56;;;;;;;12.73;4.20;;;3.70;99.90;;;;;;5082016;28;20274;-75
2022/04/10 02:01:24;;;;;;;7.83;3.83;;;3.70;99.90;;;;;;5089098;28;20205;-75
2022/04/10 02:03:51;;;;;;;11.43;5.10;;;3.70;99.90;;;;;;5082893;28;20194;-75
2022/04/10 02:06:19;;;;;;;13.17;4.33;;;3.70;99.90;;;;;;5081303;28;20330;-75
2022/04/10 02:08:47;;;;;;;12.17;4.37;;;3.70;99.90;;;;;;5084257;28;20519;-75
2022/04/10 02:11:18;;;;;;;6.73;3.87;;;3.70;99.90;;;;;;5087618;28;20205;-76
2022/04/10 02:13:46;;;;;;;8.13;3.90;;;3.60;99.90;;;;;;5086548;28;20206;-76
2022/04/10 02:16:16;;;;;;;11.20;4.13;;;3.60;99.90;;;;;;5089309;28;20267;-75
2022/04/10 02:18:43;;;;;;;10.57;4.17;;;3.60;99.90;;;;;;5080610;28;20574;-75
2022/04/10 02:21:10;;;;;;;9.03;3.87;;;3.70;99.90;;;;;;5085415;28;20251;-76
2022/04/10 02:23:38;;;;;;;10.83;3.97;;;3.70;99.90;;;;;;5082551;28;20696;-75
2022/04/10 02:26:06;;;;;;;8.00;3.50;;;3.70;99.90;;;;;;5089200;28;20201;-76
2022/04/10 02:28:33;;;;;;;8.80;4.60;;;3.70;99.90;;;;;;5084817;28;20603;-76
2022/04/10 02:31:00;;;;;;;10.97;4.63;;;3.70;99.90;;;;;;5089224;28;20613;-76
2022/04/10 02:33:28;;;;;;;11.47;4.03;;;3.70;99.90;;;;;;5087819;28;20202;-76
2022/04/10 02:35:56;;;;;;;12.47;4.60;;;3.70;99.90;;;;;;5086465;28;20251;-76
2022/04/10 02:38:23;;;;;;;10.90;4.13;;;3.70;99.90;;;;;;5085919;28;20715;-73
2022/04/10 02:40:50;;;;;;;9.63;4.27;;;3.70;99.90;;;;;;5088515;28;20660;-73
2022/04/10 02:43:16;;;;;;;8.33;3.83;;;3.70;99.90;;;;;;5090381;28;20197;-73
2022/04/10 02:45:44;;;;;;;10.67;4.27;;;3.70;99.90;;;;;;5086554;28;20244;-73
2022/04/10 02:48:11;;;;;;;11.17;4.27;;;3.70;99.90;;;;;;5088583;28;20283;-73
2022/04/10 02:50:41;;;;;;;12.47;4.60;;;3.70;99.90;;;;;;5084375;28;20214;-73
2022/04/10 02:53:08;;;;;;;8.60;4.60;;;3.70;99.90;;;;;;5079207;28;20193;-72
2022/04/10 02:55:35;;;;;;;12.73;4.30;;;3.70;99.90;;;;;;5089328;28;20239;-73
2022/04/10 02:58:02;;;;;;;14.47;5.23;;;3.70;99.90;;;;;;5091162;28;20228;-73
2022/04/10 03:00:30;;;;;;;13.47;4.40;;;3.80;99.90;;;;;;5090538;28;20251;-72
2022/04/10 03:02:57;;;;;;;13.17;4.17;;;3.80;99.90;;;;;;5091695;28;20190;-73
2022/04/10 03:05:24;;;;;;;7.70;4.17;;;3.80;99.90;;;;;;5087991;28;20210;-73
2022/04/10 03:07:52;;;;;;;10.93;4.50;;;3.80;99.90;;;;;;5091717;28;20286;-75
2022/04/10 03:10:19;;;;;;;11.50;4.60;;;3.70;99.90;;;;;;5090444;28;20275;-76
2022/04/10 03:12:46;;;;;;;13.83;5.10;;;3.70;99.90;;;;;;5089728;28;20198;-76
2022/04/10 03:15:13;;;;;;;12.07;4.47;;;3.60;99.90;;;;;;5090801;28;20259;-76
2022/04/10 03:17:40;;;;;;;13.57;4.60;;;3.60;99.90;;;;;;5092226;28;20198;-75
2022/04/10 03:20:11;;;;;;;12.10;5.47;;;3.60;99.90;;;;;;5090721;28;20247;-75
2022/04/10 03:22:38;;;;;;;13.13;4.67;;;3.60;99.90;;;;;;5090161;28;20728;-75
2022/04/10 03:25:08;;;;;;;10.37;4.20;;;3.60;99.90;;;;;;5071691;28;20205;-75
2022/04/10 03:27:35;;;;;;;7.70;4.00;;;3.60;99.90;;;;;;5088585;28;20205;-75
2022/04/10 03:30:02;;;;;;;12.53;4.30;;;3.60;99.90;;;;;;5090712;28;20257;-75
2022/04/10 03:32:29;;;;;;;12.93;4.27;;;3.60;99.90;;;;;;5090191;28;20557;-75
2022/04/10 03:34:56;;;;;;;9.90;4.20;;;3.50;99.90;;;;;;5070851;28;20198;-75
2022/04/10 03:37:24;;;;;;;11.40;4.67;;;3.50;99.90;;;;;;5077957;28;20206;-75
2022/04/10 03:39:51;;;;;;;9.90;4.10;;;3.60;99.90;;;;;;5070494;28;20217;-75
2022/04/10 03:42:19;;;;;;;8.93;4.03;;;3.60;99.90;;;;;;5090861;28;20205;-75
2022/04/10 03:44:46;;;;;;;10.03;3.97;;;3.60;99.90;;;;;;5091122;28;20659;-75
2022/04/10 03:47:13;;;;;;;11.53;4.97;;;3.60;99.90;;;;;;5090528;28;20271;-75
2022/04/10 03:49:40;;;;;;;12.60;4.17;;;3.50;99.90;;;;;;5089645;28;20615;-75
2022/04/10 03:52:08;;;;;;;8.33;4.13;;;3.40;99.90;;;;;;5091171;28;20193;-76
2022/04/10 03:54:35;;;;;;;12.47;4.20;;;3.30;99.90;;;;;;5090146;28;20198;-75
2022/04/10 03:57:03;;;;;;;11.27;4.80;;;3.30;99.90;;;;;;5089705;28;20598;-75
2022/04/10 03:59:32;;;;;;;12.43;4.07;;;3.20;99.90;;;;;;5089147;28;20197;-75
2022/04/10 04:01:59;;;;;;;11.33;4.17;;;3.10;99.90;;;;;;5089518;28;20200;-75
2022/04/10 04:04:26;;;;;;;13.00;3.87;;;3.10;99.90;;;;;;5088858;28;20202;-75
2022/04/10 04:06:53;;;;;;;10.67;3.93;;;3.10;99.90;;;;;;5090406;28;20202;-72
2022/04/10 04:09:20;;;;;;;12.77;5.00;;;3.00;99.90;;;;;;5068249;28;20745;-72
2022/04/10 04:11:47;;;;;;;14.83;4.90;;;3.10;99.90;;;;;;5078995;28;20717;-73
2022/04/10 04:14:14;;;;;;;11.10;4.23;;;3.10;99.90;;;;;;5088127;28;20210;-73
2022/04/10 04:16:43;;;;;;;12.07;4.00;;;3.10;99.90;;;;;;5085260;28;20202;-73
2022/04/10 04:19:09;;;;;;;14.13;4.27;;;3.00;99.90;;;;;;5087117;28;20214;-73
2022/04/10 04:21:37;;;;;;;12.27;4.50;;;3.00;99.90;;;;;;5089332;28;20190;-73
2022/04/10 04:24:04;;;;;;;12.80;4.57;;;3.00;99.90;;;;;;5086190;28;20522;-73
2022/04/10 04:26:31;;;;;;;16.47;4.33;;;3.00;99.90;;;;;;5084230;28;20258;-73
2022/04/10 04:28:58;;;;;;;10.83;4.20;;;3.10;99.90;;;;;;5091843;28;20672;-73
2022/04/10 04:31:25;;;;;;;13.30;4.93;;;3.10;99.90;;;;;;5092352;28;20201;-73
2022/04/10 04:33:53;;;;;;;15.80;4.77;;;3.20;99.90;;;;;;5094736;28;20271;-73
2022/04/10 04:36:20;;;;;;;15.10;4.77;;;3.20;99.90;;;;;;5087245;28;20226;-73
2022/04/10 04:38:47;;;;;;;10.53;4.33;;;3.20;99.90;;;;;;5092324;28;20194;-73
2022/04/10 04:41:14;;;;;;;10.57;4.20;;;3.20;99.90;;;;;;5092741;28;20263;-73
2022/04/10 04:43:41;;;;;;;11.47;4.50;;;3.30;99.90;;;;;;5093850;28;20672;-73
2022/04/10 04:46:08;;;;;;;12.57;4.00;;;3.30;99.90;;;;;;5074550;28;20194;-73
2022/04/10 04:48:35;;;;;;;12.60;4.20;;;3.20;99.90;;;;;;5092841;28;20198;-73
2022/04/10 04:51:04;;;;;;;11.77;4.20;;;3.20;99.90;;;;;;5093807;28;20271;-73
2022/04/10 04:53:31;;;;;;;8.13;4.30;;;3.20;99.90;;;;;;5092857;28;20198;-73
2022/04/10 04:55:58;;;;;;;9.83;4.17;;;3.20;99.90;;;;;;5094138;28;20201;-73
2022/04/10 04:58:25;;;;;;;13.13;5.07;;;3.20;99.90;;;;;;5087705;28;20250;-73
2022/04/10 05:00:52;;;;;;;12.60;4.50;;;3.20;99.90;;;;;;5093852;28;20525;-73
2022/04/10 05:03:19;;;;;;;12.27;4.57;;;3.10;99.90;;;;;;5088976;28;20580;-73
2022/04/10 05:05:46;;;;;;;8.23;4.27;;;3.10;99.90;;;;;;5093780;28;20232;-73
2022/04/10 05:08:14;;;;;;;10.73;4.30;;;3.10;99.90;;;;;;5086067;28;20210;-73
2022/04/10 05:10:41;;;;;;;13.70;4.50;;;3.20;99.90;;;;;;5088390;28;20229;-73
2022/04/10 05:13:09;;;;;;;13.73;5.47;;;3.10;99.90;;;;;;5092867;28;20243;-73
2022/04/10 05:15:36;;;;;;;13.07;4.40;;;3.10;99.90;;;;;;5093504;28;20655;-73
2022/04/10 05:18:03;;;;;;;16.37;4.43;;;3.20;99.90;;;;;;5093391;28;20586;-73
2022/04/10 05:20:30;;;;;;;13.67;4.53;;;3.20;99.90;;;;;;5092795;28;20233;-73
2022/04/10 05:22:58;;;;;;;11.93;4.13;;;3.20;99.90;;;;;;5089105;28;20205;-73
2022/04/10 05:25:26;;;;;;;9.17;3.87;;;3.20;99.90;;;;;;5090450;28;20198;-73
2022/04/10 05:27:53;;;;;;;12.37;4.00;;;3.30;99.90;;;;;;5089539;28;20205;-73
2022/04/10 05:30:20;;;;;;;9.00;3.87;;;3.60;99.90;;;;;;5088830;28;20287;-73
2022/04/10 05:32:47;;;;;;;9.40;4.00;;;4.10;99.90;;;;;;5088724;28;20198;-73
2022/04/10 05:35:15;;;;;;;12.97;4.00;;;4.50;1.00;;;;;;5091717;28;20201;-73
2022/04/10 05:37:42;;;;;;;13.23;4.23;;;4.50;1.00;;;;;;5088216;28;20241;-73
2022/04/10 05:40:10;;;;;;;12.33;3.93;;;4.50;1.00;;;;;;5085385;28;20202;-73
2022/04/10 05:42:43;;;;;;;8.57;3.67;;;4.70;1.00;;;;;;5087021;28;20209;-72
2022/04/10 05:45:10;;;;;;;9.70;3.80;;;4.40;1.00;;;;;;5089311;28;20216;-73
2022/04/10 05:47:39;;;;;;;13.90;4.97;;;4.30;1.00;;;;;;5085821;28;20221;-74
2022/04/10 05:50:07;;;;;;;14.37;4.10;;;4.30;1.00;;;;;;5087955;28;20218;-74
2022/04/10 05:52:38;;;;;;;13.10;3.90;;;4.80;1.00;;;;;;5089006;28;20676;-74
2022/04/10 05:55:07;;;;;;;10.80;3.30;;;5.40;99.90;;;;;;5083831;28;20291;-74
2022/04/10 05:57:34;;;;;;;12.47;3.57;;;5.60;1.00;;;;;;5085531;28;20652;-72
2022/04/10 06:00:05;;;;;;;16.80;3.97;;;5.90;1.00;;;;;;5090531;28;20255;-72
2022/04/10 06:02:32;;;;;;;13.00;4.33;;;5.40;1.00;;;;;;5091333;28;20201;-72
2022/04/10 06:04:59;;;;;;;6.43;3.50;;;4.90;99.90;;;;;;5089542;28;20198;-73
2022/04/10 06:07:26;;;;;;;11.17;3.53;;;4.70;1.00;;;;;;5090759;28;20223;-72
2022/04/10 06:09:53;;;;;;;8.60;3.37;;;4.70;1.00;;;;;;5089810;28;20290;-72
2022/04/10 06:12:20;;;;;;;14.90;3.93;;;4.60;1.00;;;;;;5092171;28;20201;-73
2022/04/10 06:14:47;;;;;;;8.67;4.17;;;5.20;1.00;;;;;;5085852;28;20652;-73
2022/04/10 06:17:15;;;;;;;8.67;3.70;;;6.00;1.00;;;;;;5090293;28;20206;-75
2022/04/10 06:19:42;;;;;;;6.93;3.03;;;6.40;1.00;;;;;;5083121;28;20906;-74
2022/04/10 06:22:09;;;;;;;11.90;3.40;;;6.50;1.00;;;;;;5087690;28;20660;-74
2022/04/10 06:24:36;;;;;;;10.10;3.70;;;6.50;1.00;;;;;;5087375;28;20197;-73
2022/04/10 06:27:04;;;;;;;10.93;3.30;;;7.00;99.90;;;;;;5078633;28;20240;-73
2022/04/10 06:29:31;;;;;;;9.17;3.47;;;6.60;99.90;;;;;;5089440;28;20641;-73
2022/04/10 06:31:58;;;;;;;7.57;3.17;;;6.50;1.00;;;;;;5089747;28;20193;-73
2022/04/10 06:34:27;;;;;;;7.90;3.90;;;6.10;99.90;;;;;;5087268;28;20552;-73
2022/04/10 06:36:54;;;;;;;11.60;3.97;;;5.70;99.90;;;;;;5085946;28;20609;-73
2022/04/10 06:39:21;;;;;;;14.23;5.67;;;5.50;99.90;;;;;;5086297;28;20193;-72
2022/04/10 06:41:48;;;;;;;14.40;3.80;;;5.40;1.00;;;;;;5087564;28;20202;-73
2022/04/10 06:44:15;;;;;;;14.07;4.10;;;5.40;1.00;;;;;;5084748;28;20214;-72
2022/04/10 06:46:42;;;;;;;29.40;4.57;;;5.40;1.00;;;;;;5087282;28;20220;-77
2022/04/10 06:49:12;;;;;;;13.57;3.73;;;5.50;99.90;;;;;;5088129;28;20213;-72
2022/04/10 06:51:40;;;;;;;10.33;3.80;;;5.40;1.00;;;;;;5078214;28;20226;-72
2022/04/10 06:54:08;;;;;;;12.13;4.37;;;5.40;1.00;;;;;;5088524;28;20239;-72
2022/04/10 06:56:35;;;;;;;7.83;3.50;;;6.00;99.90;;;;;;5083714;28;20531;-72
2022/04/10 06:59:02;;;;;;;11.20;3.40;;;6.30;92.50;;;;;;5084654;28;20206;-73
2022/04/10 07:01:29;;;;;;;12.63;4.13;;;6.70;1.00;;;;;;5087571;28;20202;-72
2022/04/10 07:03:58;;;;;;;12.27;4.07;;;7.00;1.00;;;;;;5086861;28;20236;-73
2022/04/10 07:06:25;;;;;;;14.13;3.70;;;7.30;1.00;;;;;;5082578;28;20202;-73
2022/04/10 07:08:53;;;;;;;14.37;3.47;;;7.20;1.00;;;;;;5086480;28;20628;-73
2022/04/10 07:11:20;;;;;;;13.90;3.57;;;6.60;99.90;;;;;;5085150;28;20225;-72
2022/04/10 07:13:47;;;;;;;10.83;2.97;;;6.70;1.00;;;;;;5084389;28;20233;-73
2022/04/10 07:16:14;;;;;;;10.30;3.00;;;7.10;99.90;;;;;;5081612;28;20271;-72
2022/04/10 07:18:41;;;;;;;7.23;3.00;;;6.40;1.00;;;;;;5089149;28;20202;-72
2022/04/10 07:21:08;;;;;;;6.53;3.40;;;6.60;1.00;;;;;;5088475;28;20202;-73
2022/04/10 07:23:43;;;;;;;13.63;4.63;;;6.80;1.00;;;;;;5080028;28;20209;-73
2022/04/10 07:26:13;;;;;;;6.67;3.07;;;6.80;99.90;;;;;;5088892;28;20229;-72
2022/04/10 07:28:40;;;;;;;7.07;3.23;;;6.50;1.00;;;;;;5086087;28;20205;-73
2022/04/10 07:31:08;;;;;;;11.07;3.60;;;6.50;99.90;;;;;;5086502;28;20349;-72
2022/04/10 07:33:35;;;;;;;9.63;3.00;;;6.60;1.00;;;;;;5085186;28;20251;-73
2022/04/10 07:36:03;;;;;;;8.80;3.10;;;6.80;1.00;;;;;;5085757;28;20247;-72
2022/04/10 07:38:30;;;;;;;6.23;2.83;;;7.20;10.90;;;;;;5087400;28;20246;-73
2022/04/10 07:40:57;;;;;;;9.37;2.93;;;7.00;1.00;;;;;;5087181;28;20644;-73
2022/04/10 07:43:26;;;;;;;8.13;3.03;;;7.10;1.00;;;;;;5088426;28;20254;-73
2022/04/10 07:48:37;;;;;;;11.90;3.73;;;7.30;1.00;;;;;;5086560;28;20259;-74
2022/04/10 07:51:04;;;;;;;8.43;3.77;;;7.70;1.00;;;;;;5089516;28;20237;-73
2022/04/10 07:53:31;;;;;;;11.33;3.17;;;7.40;1.00;;;;;;5088580;28;20705;-73
2022/04/10 07:55:58;;;;;;;12.10;4.17;;;7.10;1.00;;;;;;5082496;28;20611;-73
2022/04/10 07:58:27;;;;;;;10.67;3.50;;;7.20;1.00;;;;;;5088849;28;20615;-73
2022/04/10 08:00:54;;;;;;;9.57;3.03;;;7.20;1.00;;;;;;5087739;28;20201;-73
2022/04/10 08:03:22;;;;;;;12.13;3.93;;;7.00;99.90;;;;;;5088462;28;20202;-73
2022/04/10 08:05:49;;;;;;;6.40;3.10;;;7.10;1.00;;;;;;5089152;28;20251;-72
2022/04/10 08:08:16;;;;;;;10.43;3.33;;;6.90;40.10;;;;;;5092915;28;20202;-73
2022/04/10 08:10:43;;;;;;;9.57;3.87;;;7.00;99.90;;;;;;5087624;28;20278;-73
2022/04/10 08:13:10;;;;;;;7.70;2.80;;;6.80;1.00;;;;;;5090957;28;20606;-73
2022/04/10 08:15:38;;;;;;;7.60;2.70;;;6.90;1.00;;;;;;5092421;28;20197;-72
2022/04/10 08:18:08;;;;;;;6.60;2.20;;;7.10;99.90;;;;;;5088118;28;20263;-72
2022/04/10 08:20:35;;;;;;;10.47;2.20;;;7.30;99.90;;;;;;5090111;28;20206;-73
2022/04/10 08:23:02;;;;;;;8.80;2.10;;;7.20;1.00;;;;;;5092018;28;20206;-73
2022/04/10 08:25:29;;;;;;;6.17;2.10;;;7.10;99.90;;;;;;5088314;28;20210;-73
2022/04/10 08:27:57;;;;;;;11.20;2.77;;;7.50;99.90;;;;;;5088601;28;20193;-73
2022/04/10 08:30:24;;;;;;;7.00;2.20;;;7.50;99.90;;;;;;5091492;28;20256;-73
2022/04/10 08:32:52;;;;;;;9.13;2.23;;;7.30;99.90;;;;;;5089986;28;20241;-72
2022/04/10 08:35:19;;;;;;;7.40;2.40;;;7.30;99.90;;;;;;5091388;28;20709;-73
2022/04/10 08:37:47;;;;;;;6.40;2.10;;;7.30;1.00;;;;;;5090713;28;20205;-73
2022/04/10 08:40:14;;;;;;;5.17;2.43;;;7.10;1.00;;;;;;5092930;28;20582;-73
2022/04/10 08:42:41;;;;;;;8.93;2.33;;;7.00;99.90;;;;;;5087428;28;20267;-73
2022/04/10 08:45:09;;;;;;;6.43;3.00;;;7.10;99.90;;;;;;5090444;28;20564;-73
2022/04/10 08:47:38;;;;;;;5.20;2.40;;;7.20;1.00;;;;;;5093693;28;20224;-73
2022/04/10 08:50:09;;;;;;;4.77;2.20;;;7.30;99.90;;;;;;5087693;28;20214;-72
2022/04/10 08:52:37;;;;;;;8.27;3.13;;;7.00;99.90;;;;;;5089050;28;20255;-73
2022/04/10 08:55:05;;;;;;;8.90;2.50;;;7.00;1.00;;;;;;5093180;28;20197;-73
2022/04/10 08:57:32;;;;;;;5.60;2.13;;;6.90;1.00;;;;;;5091410;28;20202;-73
2022/04/10 08:59:59;;;;;;;10.00;2.40;;;6.90;99.90;;;;;;5085158;28;20194;-73
2022/04/10 09:02:26;;;;;;;8.30;2.80;;;7.10;1.00;;;;;;5085621;28;20572;-73
2022/04/10 09:04:53;;;;;;;8.37;3.00;;;7.10;99.90;;;;;;5092237;28;20204;-73
2022/04/10 09:07:22;;;;;;;5.40;2.10;;;7.00;1.00;;;;;;5091906;28;20198;-73
2022/04/10 09:09:54;;;;;;;10.20;2.60;;;7.00;1.00;;;;;;5085413;28;20248;-73
2022/04/10 09:12:22;;;;;;;7.87;2.40;;;7.20;1.00;;;;;;5092543;28;20837;-73
2022/04/10 09:14:50;;;;;;;6.90;2.27;;;7.60;1.00;;;;;;5083584;28;20202;-73
2022/04/10 09:17:18;;;;;;;4.73;2.20;;;7.90;99.90;;;;;;5090838;28;20569;-73
2022/04/10 09:19:48;;;;;;;8.37;2.13;;;8.60;1.00;;;;;;5091565;28;20709;-73
2022/04/10 09:22:30;;;;;;;4.63;1.80;;;9.00;99.90;;;;;;5083433;28;20229;-73
2022/04/10 09:25:07;;;;;;;8.17;2.00;;;9.10;95.20;;;;;;5089078;28;20204;-73
2022/04/10 09:27:35;;;;;;;5.13;1.73;;;9.10;93.40;;;;;;5088845;28;20301;-73
2022/04/10 09:30:03;;;;;;;7.33;1.97;;;8.80;1.00;;;;;;5090114;28;20697;-73
2022/04/10 09:32:41;;;;;;;5.10;1.83;;;8.60;1.00;;;;;;5086360;28;20249;-73
2022/04/10 09:35:10;;;;;;;4.63;1.67;;;8.80;90.30;;;;;;5088772;28;20198;-73
2022/04/10 09:37:47;;;;;;;5.50;1.90;;;8.40;89.80;;;;;;5089986;28;20237;-73
2022/04/10 09:40:36;;;;;;;3.93;1.50;;;8.30;1.00;;;;;;5084174;28;20241;-73
2022/04/10 09:43:05;;;;;;;5.03;1.40;;;8.30;1.00;;;;;;5087356;28;20541;-73
2022/04/10 09:45:34;;;;;;;4.37;1.43;;;8.10;89.80;;;;;;5090704;28;20206;-73
2022/04/10 09:48:20;;;;;;;4.50;1.50;;;8.30;84.70;;;;;;5084474;28;20619;-73
2022/04/10 09:50:48;;;;;;;4.60;1.60;;;8.40;99.90;;;;;;5089974;28;20222;-73
2022/04/10 09:53:16;;;;;;;5.00;1.63;;;8.30;81.50;;;;;;5091014;28;20201;-73
2022/04/10 09:55:44;;;;;;;4.70;1.60;;;8.70;99.90;;;;;;5085271;28;20234;-74
2022/04/10 09:58:13;;;;;;;3.90;1.60;;;9.30;78.00;;;;;;5089568;28;20194;-74
2022/04/10 10:00:42;;;;;;;6.43;1.73;;;8.80;75.30;;;;;;5088521;28;20205;-74
2022/04/10 10:03:11;;;;;;;4.43;1.50;;;8.00;1.00;;;;;;5089781;28;20262;-73
2022/04/10 10:05:39;;;;;;;7.37;1.20;;;8.50;1.00;;;;;;5088191;28;20215;-74
2022/04/10 10:08:07;;;;;;;5.43;1.40;;;8.90;69.00;;;;;;5086967;28;20210;-74
2022/04/10 10:10:37;;;;;;;4.40;1.50;;;8.80;72.10;;;;;;5081431;28;20210;-74
2022/04/10 10:13:06;;;;;;;4.50;1.60;;;9.30;75.10;;;;;;5085507;28;20197;-74
2022/04/10 10:15:33;;;;;;;4.07;1.70;;;9.50;67.80;;;;;;5087042;28;20201;-74
2022/04/10 10:18:03;;;;;;;5.07;2.00;;;9.30;68.60;;;;;;5083861;28;20229;-74
2022/04/10 10:20:30;;;;;;;4.30;1.60;;;8.80;64.00;;;;;;5085101;28;20194;-74
2022/04/10 10:22:58;;;;;;;4.90;1.33;;;8.70;65.30;;;;;;5090593;28;20201;-74
2022/04/10 10:25:30;;;;;;;4.37;1.70;;;8.40;69.30;;;;;;5089759;28;20201;-74
2022/04/10 10:28:33;;;;;;;3.63;1.50;;;8.30;67.30;;;;;;5084114;28;20652;-74
2022/04/10 10:31:15;;;;;;;3.13;1.60;;;9.20;66.00;;;;;;5082282;28;20221;-74
2022/04/10 10:33:51;;;;;;;5.27;1.70;;;9.70;61.40;;;;;;5088856;28;20607;-74
2022/04/10 10:36:23;;;;;;;5.20;2.37;;;9.80;56.30;;;;;;5085813;28;20550;-74
2022/04/10 10:38:52;;;;;;;6.10;1.77;;;10.30;56.50;;;;;;5088905;28;20206;-74
2022/04/10 10:41:35;;;;;;;7.30;1.60;;;10.10;55.40;;;;;;5091216;28;20233;-74
2022/04/10 10:44:43;;;;;;;5.43;1.50;;;10.10;57.20;;;;;;5080154;28;20220;-74
2022/04/10 10:47:23;;;;;;;3.77;1.57;;;9.70;53.60;;;;;;5087858;28;20286;-77
2022/04/10 10:49:52;;;;;;;3.13;1.83;;;9.40;55.30;;;;;;5081974;28;20635;-75
2022/04/10 10:52:20;;;;;;;3.27;1.67;;;9.20;55.80;;;;;;5082201;28;20271;-78
2022/04/10 10:54:53;;;;;;;4.50;1.97;;;9.70;59.80;;;;;;5089937;28;20616;-76
2022/04/10 10:57:32;;;;;;;4.70;1.57;;;10.00;51.60;;;;;;5084639;28;20208;-73
2022/04/10 11:00:15;;;;;;;4.93;1.40;;;10.30;50.00;;;;;;5079279;28;20229;-82
2022/04/10 11:02:49;;;;;;;6.53;2.03;;;9.70;51.30;;;;;;5091917;28;20209;-69
2022/04/10 11:05:31;;;;;;;4.63;1.77;;;9.70;56.90;;;;;;5088877;28;20267;-72
2022/04/10 11:07:59;;;;;;;6.00;1.97;;;9.30;52.80;;;;;;5089837;28;20287;-73
2022/04/10 11:10:28;;;;;;;5.97;2.93;;;9.30;53.50;;;;;;5103318;22;20283;-75
2022/04/10 11:13:00;;;;;;;6.67;2.00;;;9.80;55.60;;;;;;5086453;28;20225;-74
2022/04/10 11:15:31;;;;;;;3.17;2.07;;;9.90;53.80;;;;;;5086654;28;20202;-75
2022/04/10 11:18:28;;;;;;;2.57;1.40;;;9.70;50.40;;;;;;5085224;28;20420;-82
2022/04/10 11:20:55;;;;;;;4.37;1.77;;;10.30;52.90;;;;;;5086235;28;20202;-80
2022/04/10 11:23:28;;;;;;;4.93;2.23;;;9.60;55.30;;;;;;5085977;28;20680;-81
2022/04/10 11:25:55;;;;;;;4.17;2.30;;;9.40;55.40;;;;;;5086825;28;20677;-82
2022/04/10 11:28:24;;;;;;;4.67;1.77;;;9.20;57.30;;;;;;5089724;28;20647;-83
2022/04/10 11:30:52;;;;;;;4.77;1.70;;;8.90;58.60;;;;;;5089352;28;20271;-86
2022/04/10 11:33:19;;;;;;;5.37;1.90;;;9.00;1.00;;;;;;5087179;28;20202;-76
2022/04/10 11:35:57;;;;;;;2.40;1.47;;;8.90;1.00;;;;;;5086453;28;20228;-77
2022/04/10 11:38:25;;;;;;;3.27;1.33;;;8.60;1.00;;;;;;5083753;28;20205;-76
2022/04/10 11:40:53;;;;;;;4.43;1.53;;;8.60;1.00;;;;;;5087103;28;20552;-77
2022/04/10 11:43:23;;;;;;;4.57;1.23;;;8.70;1.00;;;;;;5084198;28;20208;-77
2022/04/10 11:45:53;;;;;;;4.07;1.60;;;9.50;1.00;;;;;;5087749;28;20278;-76
2022/04/10 11:48:23;;;;;;;1.83;0.83;;;9.30;1.00;;;;;;5088172;28;20735;-79
2022/04/10 11:50:50;;;;;;;0.90;0.80;;;9.10;1.00;;;;;;5081213;28;20579;-81
2022/04/10 11:53:16;;;;;;;3.23;1.00;;;9.00;1.00;;;;;;5083242;28;20225;-80
2022/04/10 11:55:45;;;;;;;5.00;1.60;;;8.80;1.00;;;;;;5086349;28;20210;-80
2022/04/10 11:58:16;;;;;;;1.87;1.33;;;9.00;99.90;;;;;;5087357;28;20201;-80
2022/04/10 12:00:47;;;;;;;2.70;1.43;;;9.30;1.00;;;;;;5086613;28;20647;-80
2022/04/10 12:03:16;;;;;;;3.77;1.73;;;9.50;1.00;;;;;;5084075;28;20198;-80
2022/04/10 12:05:43;;;;;;;2.67;1.30;;;9.70;1.00;;;;;;5087506;28;20212;-80
2022/04/10 12:08:10;;;;;;;3.50;1.30;;;9.90;1.00;;;;;;5087719;28;20573;-80
2022/04/10 12:10:36;;;;;;;6.17;1.90;;;10.60;1.00;;;;;;5080545;28;20223;-80
2022/04/10 12:13:04;;;;;;;3.47;1.30;;;9.80;1.00;;;;;;5086055;28;20695;-80
2022/04/10 12:15:33;;;;;;;4.37;1.03;;;9.90;99.90;;;;;;5087532;28;20209;-78
2022/04/10 12:18:08;;;;;;;3.87;1.40;;;9.80;1.00;;;;;;5083313;28;20628;-79
2022/04/10 12:20:37;;;;;;;1.43;1.20;;;9.70;1.00;;;;;;5083402;28;20205;-82
2022/04/10 12:23:20;;;;;;;3.33;1.00;;;9.80;1.00;;;;;;5084911;28;20617;-79
2022/04/10 12:25:48;;;;;;;4.63;1.13;;;9.60;99.90;;;;;;5083742;28;20220;-85
2022/04/10 12:28:16;;;;;;;2.27;0.80;;;9.90;99.90;;;;;;5085998;28;20282;-81
2022/04/10 12:30:44;;;;;;;2.60;1.20;;;9.80;18.20;;;;;;5089239;28;20197;-80
2022/04/10 12:33:11;;;;;;;4.63;1.40;;;9.60;99.90;;;;;;5089805;28;20221;-83
2022/04/10 12:35:40;;;;;;;4.63;1.23;;;9.30;99.90;;;;;;5092109;28;20213;-84
2022/04/10 12:38:08;;;;;;;5.53;1.50;;;8.80;99.90;;;;;;5089794;28;20299;-81
2022/04/10 12:40:36;;;;;;;1.67;1.10;;;8.20;1.00;;;;;;5085177;28;20569;-80
2022/04/10 12:43:06;;;;;;;2.13;1.00;;;7.80;1.00;;;;;;5089182;28;20194;-82
2022/04/10 12:45:36;;;;;;;2.90;1.10;;;8.00;1.00;;;;;;5085709;28;20209;-81
2022/04/10 12:48:19;;;;;;;2.43;1.17;;;8.10;1.00;;;;;;5089973;28;20201;-85
2022/04/10 12:50:48;;;;;;;2.30;1.20;;;8.60;99.90;;;;;;5083446;28;20198;-82
2022/04/10 12:53:15;;;;;;;4.20;1.90;;;8.80;99.90;;;;;;5085027;28;20691;-83
2022/04/10 12:55:42;;;;;;;3.77;1.87;;;9.20;99.90;;;;;;5088606;28;20339;-83
2022/04/10 12:58:09;;;;;;;5.77;1.60;;;9.50;1.00;;;;;;5090610;28;20198;-84
2022/04/10 13:00:37;;;;;;;5.00;1.43;;;9.20;1.00;;;;;;5091679;28;20214;-87
2022/04/10 13:03:20;;;;;;;4.97;1.73;;;9.60;99.90;;;;;;5089939;28;20193;-85
2022/04/10 13:06:02;;;;;;;6.00;2.10;;;10.10;99.90;;;;;;5090441;28;20212;-86